<?xml version='1.0' encoding='UTF-8'?><gpx version="1.1" creator="JPX - https://github.com/jenetics/jpx" xmlns="http://www.topografix.com/GPX/1/1"><trk><trkseg><trkpt lat="43.5905217" lon="12.14999"><ele>669.6666666666666</ele><time>2026-03-22T10:05:08.896Z</time></trkpt><trkpt lat="43.5905333" lon="12.149855"><ele>668.3333333333333</ele><time>2026-03-22T10:05:10.896Z</time></trkpt><trkpt lat="43.5905567" lon="12.1497683"><ele>667.0</ele><time>2026-03-22T10:05:11.897Z</time></trkpt><trkpt lat="43.5905867" lon="12.149675"><ele>665.6666666666666</ele><time>2026-03-22T10:05:12.896Z</time></trkpt><trkpt lat="43.590625" lon="12.149595"><ele>664.3333333333334</ele><time>2026-03-22T10:05:13.896Z</time></trkpt><trkpt lat="43.590695" lon="12.1495417"><ele>663.0</ele><time>2026-03-22T10:05:14.896Z</time></trkpt><trkpt lat="43.590765" lon="12.1495117"><ele>663.0</ele><time>2026-03-22T10:05:15.896Z</time></trkpt><trkpt lat="43.59084" lon="12.149505"><ele>663.0</ele><time>2026-03-22T10:05:16.896Z</time></trkpt><trkpt lat="43.5909233" lon="12.1495283"><ele>663.0</ele><time>2026-03-22T10:05:17.896Z</time></trkpt><trkpt lat="43.5910083" lon="12.1495717"><ele>663.0</ele><time>2026-03-22T10:05:18.897Z</time></trkpt><trkpt lat="43.5910983" lon="12.14964"><ele>663.0</ele><time>2026-03-22T10:05:19.896Z</time></trkpt><trkpt lat="43.5911783" lon="12.1497017"><ele>663.0</ele><time>2026-03-22T10:05:20.896Z</time></trkpt><trkpt lat="43.5912533" lon="12.14976"><ele>664.1666666666666</ele><time>2026-03-22T10:05:21.896Z</time></trkpt><trkpt lat="43.591335" lon="12.1498117"><ele>665.3333333333334</ele><time>2026-03-22T10:05:22.896Z</time></trkpt><trkpt lat="43.5914233" lon="12.14985"><ele>666.5</ele><time>2026-03-22T10:05:23.896Z</time></trkpt><trkpt lat="43.5915083" lon="12.1498867"><ele>667.6666666666667</ele><time>2026-03-22T10:05:24.896Z</time></trkpt><trkpt lat="43.5915833" lon="12.149935"><ele>668.8333333333334</ele><time>2026-03-22T10:05:25.896Z</time></trkpt><trkpt lat="43.5916383" lon="12.14999"><ele>670.0</ele><time>2026-03-22T10:05:26.896Z</time></trkpt><trkpt lat="43.5916667" lon="12.1501567"><ele>673.25</ele><time>2026-03-22T10:05:28.896Z</time></trkpt><trkpt lat="43.591635" lon="12.150275"><ele>676.5</ele><time>2026-03-22T10:05:29.896Z</time></trkpt><trkpt lat="43.5915733" lon="12.1504183"><ele>679.75</ele><time>2026-03-22T10:05:30.897Z</time></trkpt><trkpt lat="43.5915033" lon="12.1505833"><ele>683.0</ele><time>2026-03-22T10:05:31.896Z</time></trkpt><trkpt lat="43.5914333" lon="12.150745"><ele>685.5999999999999</ele><time>2026-03-22T10:05:32.896Z</time></trkpt><trkpt lat="43.59137" lon="12.150895"><ele>688.1999999999999</ele><time>2026-03-22T10:05:33.896Z</time></trkpt><trkpt lat="43.5913183" lon="12.1510333"><ele>690.8</ele><time>2026-03-22T10:05:34.896Z</time></trkpt><trkpt lat="43.591285" lon="12.151145"><ele>693.4</ele><time>2026-03-22T10:05:35.896Z</time></trkpt><trkpt lat="43.5912667" lon="12.151235"><ele>696.0</ele><time>2026-03-22T10:05:36.896Z</time></trkpt><trkpt lat="43.5912633" lon="12.15133"><ele>696.0</ele><time>2026-03-22T10:05:37.896Z</time></trkpt><trkpt lat="43.5913067" lon="12.15143"><ele>696.0</ele><time>2026-03-22T10:05:39.896Z</time></trkpt><trkpt lat="43.59139" lon="12.1514517"><ele>696.0</ele><time>2026-03-22T10:06:18.896Z</time></trkpt><trkpt lat="43.5915233" lon="12.1514067"><ele>696.0</ele><time>2026-03-22T10:06:20.896Z</time></trkpt><trkpt lat="43.59161" lon="12.15135"><ele>696.0</ele><time>2026-03-22T10:06:21.896Z</time></trkpt><trkpt lat="43.5916933" lon="12.1512983"><ele>696.0</ele><time>2026-03-22T10:06:22.896Z</time></trkpt><trkpt lat="43.5917817" lon="12.151255"><ele>696.0</ele><time>2026-03-22T10:06:23.896Z</time></trkpt><trkpt lat="43.5918783" lon="12.1512167"><ele>696.0</ele><time>2026-03-22T10:06:24.896Z</time></trkpt><trkpt lat="43.59198" lon="12.1512083"><ele>696.0</ele><time>2026-03-22T10:06:25.896Z</time></trkpt><trkpt lat="43.5921033" lon="12.1512083"><ele>696.0</ele><time>2026-03-22T10:06:26.896Z</time></trkpt><trkpt lat="43.5922167" lon="12.1512083"><ele>699.4</ele><time>2026-03-22T10:06:27.896Z</time></trkpt><trkpt lat="43.592325" lon="12.1512083"><ele>702.8</ele><time>2026-03-22T10:06:28.897Z</time></trkpt><trkpt lat="43.5924333" lon="12.15122"><ele>706.1999999999999</ele><time>2026-03-22T10:06:29.896Z</time></trkpt><trkpt lat="43.5925467" lon="12.1512167"><ele>709.5999999999999</ele><time>2026-03-22T10:06:30.896Z</time></trkpt><trkpt lat="43.5926383" lon="12.15119"><ele>713.0</ele><time>2026-03-22T10:06:31.896Z</time></trkpt><trkpt lat="43.5927083" lon="12.15114"><ele>713.0</ele><time>2026-03-22T10:06:32.897Z</time></trkpt><trkpt lat="43.5927633" lon="12.1510783"><ele>713.0</ele><time>2026-03-22T10:06:33.896Z</time></trkpt><trkpt lat="43.5927817" lon="12.1509833"><ele>713.0</ele><time>2026-03-22T10:06:34.896Z</time></trkpt><trkpt lat="43.5927767" lon="12.1508533"><ele>713.0</ele><time>2026-03-22T10:06:35.896Z</time></trkpt><trkpt lat="43.5927583" lon="12.1506967"><ele>713.0</ele><time>2026-03-22T10:06:36.896Z</time></trkpt><trkpt lat="43.592735" lon="12.1505283"><ele>714.4</ele><time>2026-03-22T10:06:37.896Z</time></trkpt><trkpt lat="43.5927233" lon="12.15038"><ele>715.8</ele><time>2026-03-22T10:06:38.896Z</time></trkpt><trkpt lat="43.5927333" lon="12.1502717"><ele>717.2</ele><time>2026-03-22T10:06:39.896Z</time></trkpt><trkpt lat="43.5927733" lon="12.150175"><ele>718.6</ele><time>2026-03-22T10:06:40.896Z</time></trkpt><trkpt lat="43.59284" lon="12.150085"><ele>720.0</ele><time>2026-03-22T10:06:41.896Z</time></trkpt><trkpt lat="43.592915" lon="12.15001"><ele>720.0</ele><time>2026-03-22T10:06:42.896Z</time></trkpt><trkpt lat="43.5929933" lon="12.1499733"><ele>720.0</ele><time>2026-03-22T10:06:43.896Z</time></trkpt><trkpt lat="43.5930667" lon="12.1499633"><ele>720.0</ele><time>2026-03-22T10:06:44.896Z</time></trkpt><trkpt lat="43.593155" lon="12.150025"><ele>720.0</ele><time>2026-03-22T10:06:46.896Z</time></trkpt><trkpt lat="43.593125" lon="12.1502133"><ele>720.0</ele><time>2026-03-22T10:06:48.896Z</time></trkpt><trkpt lat="43.5930767" lon="12.1503567"><ele>720.0</ele><time>2026-03-22T10:06:49.896Z</time></trkpt><trkpt lat="43.593025" lon="12.1504933"><ele>720.0</ele><time>2026-03-22T10:06:50.896Z</time></trkpt><trkpt lat="43.5930017" lon="12.1505917"><ele>720.0</ele><time>2026-03-22T10:06:51.896Z</time></trkpt><trkpt lat="43.593015" lon="12.1507033"><ele>720.0</ele><time>2026-03-22T10:06:53.896Z</time></trkpt><trkpt lat="43.593085" lon="12.150695"><ele>720.0</ele><time>2026-03-22T10:06:55.896Z</time></trkpt><trkpt lat="43.59315" lon="12.1506533"><ele>720.0</ele><time>2026-03-22T10:06:56.896Z</time></trkpt><trkpt lat="43.59323" lon="12.1506017"><ele>720.0</ele><time>2026-03-22T10:06:57.896Z</time></trkpt><trkpt lat="43.5933183" lon="12.1505533"><ele>720.0</ele><time>2026-03-22T10:06:58.896Z</time></trkpt><trkpt lat="43.5934017" lon="12.150515"><ele>720.0</ele><time>2026-03-22T10:06:59.896Z</time></trkpt><trkpt lat="43.593485" lon="12.1504783"><ele>720.0</ele><time>2026-03-22T10:07:00.896Z</time></trkpt><trkpt lat="43.59357" lon="12.1504933"><ele>720.0</ele><time>2026-03-22T10:07:01.896Z</time></trkpt><trkpt lat="43.5936567" lon="12.1505267"><ele>720.0</ele><time>2026-03-22T10:07:02.896Z</time></trkpt><trkpt lat="43.5937383" lon="12.1505867"><ele>721.4</ele><time>2026-03-22T10:07:03.896Z</time></trkpt><trkpt lat="43.5938167" lon="12.15067"><ele>722.8</ele><time>2026-03-22T10:07:04.896Z</time></trkpt><trkpt lat="43.5938883" lon="12.15076"><ele>724.2</ele><time>2026-03-22T10:07:05.897Z</time></trkpt><trkpt lat="43.5939683" lon="12.1508333"><ele>725.6</ele><time>2026-03-22T10:07:06.896Z</time></trkpt><trkpt lat="43.5940567" lon="12.1508583"><ele>727.0</ele><time>2026-03-22T10:07:07.896Z</time></trkpt><trkpt lat="43.59414" lon="12.1508383"><ele>727.0</ele><time>2026-03-22T10:07:08.896Z</time></trkpt><trkpt lat="43.594225" lon="12.1507983"><ele>727.0</ele><time>2026-03-22T10:07:09.896Z</time></trkpt><trkpt lat="43.5943233" lon="12.1507367"><ele>727.0</ele><time>2026-03-22T10:07:10.896Z</time></trkpt><trkpt lat="43.5944183" lon="12.1506783"><ele>727.0</ele><time>2026-03-22T10:07:11.897Z</time></trkpt><trkpt lat="43.5945" lon="12.15063"><ele>727.0</ele><time>2026-03-22T10:07:12.896Z</time></trkpt><trkpt lat="43.5945683" lon="12.1505917"><ele>728.1666666666667</ele><time>2026-03-22T10:07:13.896Z</time></trkpt><trkpt lat="43.59464" lon="12.1505867"><ele>729.3333333333334</ele><time>2026-03-22T10:07:14.896Z</time></trkpt><trkpt lat="43.5947233" lon="12.150605"><ele>730.5</ele><time>2026-03-22T10:07:15.896Z</time></trkpt><trkpt lat="43.5948033" lon="12.1506533"><ele>731.6666666666666</ele><time>2026-03-22T10:07:16.896Z</time></trkpt><trkpt lat="43.594885" lon="12.150725"><ele>732.8333333333333</ele><time>2026-03-22T10:07:17.896Z</time></trkpt><trkpt lat="43.5949767" lon="12.1507967"><ele>734.0</ele><time>2026-03-22T10:07:18.896Z</time></trkpt><trkpt lat="43.5950683" lon="12.1508733"><ele>738.2</ele><time>2026-03-22T10:07:19.896Z</time></trkpt><trkpt lat="43.595165" lon="12.1509067"><ele>742.4000000000001</ele><time>2026-03-22T10:07:20.896Z</time></trkpt><trkpt lat="43.5952633" lon="12.150925"><ele>746.6</ele><time>2026-03-22T10:07:21.896Z</time></trkpt><trkpt lat="43.5953783" lon="12.1509233"><ele>750.8</ele><time>2026-03-22T10:07:22.896Z</time></trkpt><trkpt lat="43.5954983" lon="12.1509283"><ele>755.0</ele><time>2026-03-22T10:07:23.896Z</time></trkpt><trkpt lat="43.5956217" lon="12.1509183"><ele>757.75</ele><time>2026-03-22T10:07:24.896Z</time></trkpt><trkpt lat="43.59574" lon="12.1509033"><ele>760.5</ele><time>2026-03-22T10:07:25.896Z</time></trkpt><trkpt lat="43.5958567" lon="12.1508933"><ele>763.25</ele><time>2026-03-22T10:07:26.896Z</time></trkpt><trkpt lat="43.5959667" lon="12.1508917"><ele>766.0</ele><time>2026-03-22T10:07:27.896Z</time></trkpt><trkpt lat="43.5960867" lon="12.150885"><ele>767.6666666666667</ele><time>2026-03-22T10:07:28.896Z</time></trkpt><trkpt lat="43.5961933" lon="12.1508867"><ele>769.3333333333334</ele><time>2026-03-22T10:07:29.896Z</time></trkpt><trkpt lat="43.5962983" lon="12.1508967"><ele>771.0</ele><time>2026-03-22T10:07:30.896Z</time></trkpt><trkpt lat="43.5963867" lon="12.150885"><ele>772.6666666666667</ele><time>2026-03-22T10:07:31.896Z</time></trkpt><trkpt lat="43.5964467" lon="12.150845"><ele>774.3333333333334</ele><time>2026-03-22T10:07:32.896Z</time></trkpt><trkpt lat="43.596495" lon="12.1507733"><ele>776.0</ele><time>2026-03-22T10:07:33.896Z</time></trkpt><trkpt lat="43.5965267" lon="12.1506617"><ele>776.0</ele><time>2026-03-22T10:07:34.896Z</time></trkpt><trkpt lat="43.5965433" lon="12.1505333"><ele>776.0</ele><time>2026-03-22T10:07:35.896Z</time></trkpt><trkpt lat="43.5965367" lon="12.1503667"><ele>776.0</ele><time>2026-03-22T10:07:36.896Z</time></trkpt><trkpt lat="43.5965383" lon="12.1502033"><ele>776.0</ele><time>2026-03-22T10:07:37.897Z</time></trkpt><trkpt lat="43.5965483" lon="12.1500683"><ele>776.0</ele><time>2026-03-22T10:07:38.896Z</time></trkpt><trkpt lat="43.59657" lon="12.1499517"><ele>776.0000000000001</ele><time>2026-03-22T10:07:40.896Z</time></trkpt><trkpt lat="43.596635" lon="12.1499883"><ele>776.0</ele><time>2026-03-22T10:07:42.896Z</time></trkpt><trkpt lat="43.59666" lon="12.150085"><ele>776.0</ele><time>2026-03-22T10:07:43.896Z</time></trkpt><trkpt lat="43.5966767" lon="12.15021"><ele>776.0</ele><time>2026-03-22T10:07:44.896Z</time></trkpt><trkpt lat="43.59669" lon="12.1503483"><ele>776.0000000000001</ele><time>2026-03-22T10:07:45.896Z</time></trkpt><trkpt lat="43.59671" lon="12.1504783"><ele>776.0</ele><time>2026-03-22T10:07:46.896Z</time></trkpt><trkpt lat="43.596755" lon="12.150615"><ele>777.5999999999999</ele><time>2026-03-22T10:07:47.896Z</time></trkpt><trkpt lat="43.596815" lon="12.1507417"><ele>779.2</ele><time>2026-03-22T10:07:48.896Z</time></trkpt><trkpt lat="43.596875" lon="12.150865"><ele>780.8</ele><time>2026-03-22T10:07:49.896Z</time></trkpt><trkpt lat="43.59694" lon="12.1509917"><ele>782.4000000000001</ele><time>2026-03-22T10:07:50.896Z</time></trkpt><trkpt lat="43.59698" lon="12.15111"><ele>784.0</ele><time>2026-03-22T10:07:51.896Z</time></trkpt><trkpt lat="43.596965" lon="12.1512383"><ele>784.0</ele><time>2026-03-22T10:07:52.896Z</time></trkpt><trkpt lat="43.5969283" lon="12.1513467"><ele>784.0</ele><time>2026-03-22T10:07:53.896Z</time></trkpt><trkpt lat="43.5968717" lon="12.1514483"><ele>784.0</ele><time>2026-03-22T10:07:54.896Z</time></trkpt><trkpt lat="43.596785" lon="12.1515367"><ele>784.0</ele><time>2026-03-22T10:07:55.896Z</time></trkpt><trkpt lat="43.596675" lon="12.1516017"><ele>784.0</ele><time>2026-03-22T10:07:56.896Z</time></trkpt><trkpt lat="43.5965467" lon="12.1516633"><ele>785.5</ele><time>2026-03-22T10:07:57.896Z</time></trkpt><trkpt lat="43.5964167" lon="12.151725"><ele>787.0</ele><time>2026-03-22T10:07:58.896Z</time></trkpt><trkpt lat="43.5962967" lon="12.1518033"><ele>788.5</ele><time>2026-03-22T10:07:59.896Z</time></trkpt><trkpt lat="43.5961817" lon="12.1519033"><ele>790.0</ele><time>2026-03-22T10:08:00.896Z</time></trkpt><trkpt lat="43.5960767" lon="12.15201"><ele>790.0</ele><time>2026-03-22T10:08:01.896Z</time></trkpt><trkpt lat="43.5959717" lon="12.15212"><ele>790.0</ele><time>2026-03-22T10:08:02.896Z</time></trkpt><trkpt lat="43.5958633" lon="12.152235"><ele>790.0</ele><time>2026-03-22T10:08:03.896Z</time></trkpt><trkpt lat="43.59575" lon="12.1523367"><ele>790.0</ele><time>2026-03-22T10:08:04.897Z</time></trkpt><trkpt lat="43.59565" lon="12.152425"><ele>793.3333333333333</ele><time>2026-03-22T10:08:05.896Z</time></trkpt><trkpt lat="43.5955617" lon="12.1525083"><ele>796.6666666666666</ele><time>2026-03-22T10:08:06.896Z</time></trkpt><trkpt lat="43.5954967" lon="12.1525867"><ele>800.0</ele><time>2026-03-22T10:08:07.896Z</time></trkpt><trkpt lat="43.5954583" lon="12.1526783"><ele>803.3333333333333</ele><time>2026-03-22T10:08:08.896Z</time></trkpt><trkpt lat="43.5954533" lon="12.1527833"><ele>806.6666666666666</ele><time>2026-03-22T10:08:09.896Z</time></trkpt><trkpt lat="43.5954817" lon="12.1528717"><ele>810.0</ele><time>2026-03-22T10:08:10.896Z</time></trkpt><trkpt lat="43.5955383" lon="12.1529367"><ele>810.0</ele><time>2026-03-22T10:08:11.896Z</time></trkpt><trkpt lat="43.5956183" lon="12.1529633"><ele>810.0</ele><time>2026-03-22T10:08:12.896Z</time></trkpt><trkpt lat="43.59572" lon="12.152955"><ele>810.0</ele><time>2026-03-22T10:08:13.896Z</time></trkpt><trkpt lat="43.5958433" lon="12.1529267"><ele>810.0</ele><time>2026-03-22T10:08:14.896Z</time></trkpt><trkpt lat="43.5959867" lon="12.1528933"><ele>810.0</ele><time>2026-03-22T10:08:15.896Z</time></trkpt><trkpt lat="43.5961267" lon="12.1528733"><ele>810.0</ele><time>2026-03-22T10:08:16.896Z</time></trkpt><trkpt lat="43.596275" lon="12.1528617"><ele>810.0</ele><time>2026-03-22T10:08:17.896Z</time></trkpt><trkpt lat="43.5964167" lon="12.1528467"><ele>810.0</ele><time>2026-03-22T10:08:18.896Z</time></trkpt><trkpt lat="43.5965617" lon="12.1528217"><ele>811.75</ele><time>2026-03-22T10:08:19.896Z</time></trkpt><trkpt lat="43.5967117" lon="12.152795"><ele>813.5</ele><time>2026-03-22T10:08:20.896Z</time></trkpt><trkpt lat="43.5968583" lon="12.1527783"><ele>815.25</ele><time>2026-03-22T10:08:21.896Z</time></trkpt><trkpt lat="43.597005" lon="12.15276"><ele>817.0</ele><time>2026-03-22T10:08:22.896Z</time></trkpt><trkpt lat="43.597145" lon="12.15274"><ele>818.5</ele><time>2026-03-22T10:08:23.896Z</time></trkpt><trkpt lat="43.5972783" lon="12.1527167"><ele>820.0</ele><time>2026-03-22T10:08:24.896Z</time></trkpt><trkpt lat="43.597405" lon="12.1527117"><ele>821.5</ele><time>2026-03-22T10:08:25.896Z</time></trkpt><trkpt lat="43.59753" lon="12.1527067"><ele>823.0</ele><time>2026-03-22T10:08:26.896Z</time></trkpt><trkpt lat="43.5976467" lon="12.1527133"><ele>823.0</ele><time>2026-03-22T10:08:27.896Z</time></trkpt><trkpt lat="43.59776" lon="12.15272"><ele>823.0</ele><time>2026-03-22T10:08:28.896Z</time></trkpt><trkpt lat="43.5978683" lon="12.1527283"><ele>823.0</ele><time>2026-03-22T10:08:29.896Z</time></trkpt><trkpt lat="43.59796" lon="12.1527367"><ele>823.0</ele><time>2026-03-22T10:08:30.896Z</time></trkpt><trkpt lat="43.598025" lon="12.1527583"><ele>823.0</ele><time>2026-03-22T10:08:31.896Z</time></trkpt><trkpt lat="43.5981083" lon="12.152785"><ele>838.0</ele><time>2026-03-22T10:08:33.896Z</time></trkpt></trkseg></trk></gpx>